Time;durP1;ratioP1;P1;durP2;ratioP2;P2;SDS_P1;SDS_P2;PMS_P1;PMS_P2;Temp;Humidity;BMP_temperature;BMP_pressure;BME280_temperature;BME280_humidity;BME280_pressure;Samples;Min_cycle;Max_cycle;Signal;HPM_P1;HPM_P2
2020/12/03 00:00:54;;;;;;;18.93;16.67;;;4.30;99.90;;;;;;5110748;27;21030;-65
2020/12/03 00:03:25;;;;;;;17.93;16.10;;;4.30;99.90;;;;;;5092865;28;20388;-65
2020/12/03 00:08:38;;;;;;;18.57;15.60;;;4.40;99.90;;;;;;5110858;27;20841;-65
2020/12/03 00:11:04;;;;;;;21.10;16.90;;;4.30;99.90;;;;;;5109622;28;20407;-65
2020/12/03 00:13:33;;;;;;;19.90;17.70;;;4.30;99.90;;;;;;5096779;28;20853;-65
2020/12/03 00:16:00;;;;;;;19.83;17.83;;;4.40;99.90;;;;;;5090423;28;20401;-65
2020/12/03 00:18:27;;;;;;;19.73;17.70;;;4.30;99.90;;;;;;5090459;28;20876;-65
2020/12/03 00:20:54;;;;;;;17.73;15.87;;;4.30;99.90;;;;;;5090031;28;20413;-65
2020/12/03 00:23:21;;;;;;;18.53;16.50;;;4.30;99.90;;;;;;5090115;28;20391;-65
2020/12/03 00:25:48;;;;;;;20.50;17.47;;;4.30;99.90;;;;;;5090245;28;20386;-65
2020/12/03 00:28:14;;;;;;;22.23;18.20;;;4.30;99.90;;;;;;5089825;28;20445;-65
2020/12/03 00:30:40;;;;;;;20.00;16.80;;;4.40;99.90;;;;;;5104594;28;20416;-66
2020/12/03 00:33:05;;;;;;;21.13;16.50;;;4.40;99.90;;;;;;5110547;28;20380;-65
2020/12/03 00:35:31;;;;;;;19.73;17.60;;;4.40;99.90;;;;;;5110447;28;20195;-65
2020/12/03 00:37:56;;;;;;;20.43;18.30;;;4.40;99.90;;;;;;5110290;28;20191;-65
2020/12/03 00:40:23;;;;;;;25.80;18.50;;;4.40;99.90;;;;;;5110145;28;20168;-65
2020/12/03 00:42:53;;;;;;;19.20;16.80;;;4.40;99.90;;;;;;5108714;28;20179;-65
2020/12/03 00:45:19;;;;;;;20.40;16.73;;;4.30;99.90;;;;;;5110172;28;20400;-65
2020/12/03 00:47:44;;;;;;;20.47;16.13;;;4.30;99.90;;;;;;5094946;28;20444;-65
2020/12/03 00:50:12;;;;;;;21.10;17.83;;;4.30;99.90;;;;;;5089957;28;20616;-65
2020/12/03 00:52:38;;;;;;;21.40;17.10;;;4.30;99.90;;;;;;5089635;28;20202;-65
2020/12/03 00:55:05;;;;;;;21.97;18.50;;;4.40;99.90;;;;;;5089610;28;20877;-65
2020/12/03 00:57:30;;;;;;;20.73;18.00;;;4.30;99.90;;;;;;5088665;28;20230;-65
2020/12/03 00:59:56;;;;;;;21.40;18.70;;;4.40;99.90;;;;;;5089491;28;20493;-65
2020/12/03 01:02:21;;;;;;;21.03;18.77;;;4.40;99.90;;;;;;5089510;28;20164;-65
2020/12/03 01:04:47;;;;;;;22.07;18.13;;;4.40;99.90;;;;;;5090028;28;20227;-65
2020/12/03 01:07:12;;;;;;;20.97;17.87;;;4.40;99.90;;;;;;5089503;28;20230;-65
2020/12/03 01:09:41;;;;;;;21.03;17.90;;;4.40;99.90;;;;;;5089323;28;20175;-65
2020/12/03 01:12:08;;;;;;;25.13;19.33;;;4.40;99.90;;;;;;5091736;28;20257;-66
2020/12/03 01:14:34;;;;;;;21.50;17.50;;;4.40;99.90;;;;;;5110033;28;20397;-65
2020/12/03 01:17:10;;;;;;;22.40;19.30;;;4.40;99.90;;;;;;5109903;28;20395;-65
2020/12/03 01:19:36;;;;;;;20.40;18.20;;;4.40;99.90;;;;;;5097812;28;20763;-65
2020/12/03 01:22:02;;;;;;;21.13;16.47;;;4.40;99.90;;;;;;5078182;28;20426;-65
2020/12/03 01:24:28;;;;;;;21.70;17.87;;;4.40;99.90;;;;;;5075582;28;20623;-65
2020/12/03 01:26:53;;;;;;;22.60;18.07;;;4.40;99.90;;;;;;5076506;28;20463;-65
2020/12/03 01:29:21;;;;;;;20.03;16.77;;;4.40;99.90;;;;;;5075802;28;20398;-65
2020/12/03 01:31:46;;;;;;;19.23;16.67;;;4.40;99.90;;;;;;5075590;28;20533;-65
2020/12/03 01:34:12;;;;;;;19.57;16.60;;;4.30;99.90;;;;;;5075609;28;20406;-65
2020/12/03 01:36:39;;;;;;;20.57;16.93;;;4.30;99.90;;;;;;5075665;28;20172;-65
2020/12/03 01:39:06;;;;;;;18.53;15.80;;;4.30;99.90;;;;;;5091783;28;20491;-65
2020/12/03 01:41:32;;;;;;;19.87;16.60;;;4.30;99.90;;;;;;5095559;28;20409;-65
2020/12/03 01:43:58;;;;;;;19.00;17.00;;;4.30;99.90;;;;;;5077218;28;20530;-65
2020/12/03 01:46:23;;;;;;;18.57;16.67;;;4.30;99.90;;;;;;5075052;28;20475;-65
2020/12/03 01:49:00;;;;;;;18.87;16.03;;;4.30;99.90;;;;;;5075168;28;20158;-65
2020/12/03 01:51:37;;;;;;;18.90;16.53;;;4.30;99.90;;;;;;5075506;28;20164;-65
2020/12/03 01:54:07;;;;;;;18.67;16.30;;;4.30;99.90;;;;;;5075469;28;20425;-65
2020/12/03 01:59:10;;;;;;;18.77;16.33;;;4.30;99.90;;;;;;5090500;28;20512;-65
2020/12/03 02:01:36;;;;;;;18.43;16.53;;;4.40;99.90;;;;;;5090358;28;20383;-65
2020/12/03 02:04:03;;;;;;;17.90;16.00;;;4.40;99.90;;;;;;5090518;28;20387;-65
2020/12/03 02:06:32;;;;;;;17.83;15.93;;;4.40;99.90;;;;;;5090445;28;20406;-65
2020/12/03 02:08:58;;;;;;;18.63;16.63;;;4.40;99.90;;;;;;5090243;28;20797;-65
2020/12/03 02:11:23;;;;;;;19.03;17.03;;;4.40;99.90;;;;;;5086900;28;20430;-65
2020/12/03 02:14:01;;;;;;;17.77;15.87;;;4.40;99.90;;;;;;5086224;28;20645;-65
2020/12/03 02:16:30;;;;;;;19.40;16.43;;;4.50;99.90;;;;;;5090168;28;20449;-65
2020/12/03 02:18:56;;;;;;;19.03;16.40;;;4.50;99.90;;;;;;5090294;28;20878;-65
2020/12/03 02:21:22;;;;;;;18.80;16.03;;;4.50;99.90;;;;;;5088351;28;20466;-65
2020/12/03 02:23:48;;;;;;;19.17;17.23;;;4.50;99.90;;;;;;5089949;28;20163;-65
2020/12/03 02:26:15;;;;;;;16.47;14.83;;;4.50;99.90;;;;;;5090201;28;20164;-65
2020/12/03 02:28:41;;;;;;;18.13;16.13;;;4.50;99.90;;;;;;5083413;28;20413;-65
2020/12/03 02:31:07;;;;;;;16.47;13.97;;;4.40;99.90;;;;;;5069803;28;20427;-65
2020/12/03 02:33:33;;;;;;;18.30;15.80;;;4.40;99.90;;;;;;5069529;28;20404;-65
2020/12/03 02:35:58;;;;;;;18.37;15.50;;;4.40;99.90;;;;;;5069534;28;20441;-65
2020/12/03 02:38:29;;;;;;;18.10;14.63;;;4.40;99.90;;;;;;5069333;28;20208;-65
2020/12/03 02:40:55;;;;;;;17.67;15.37;;;4.40;99.90;;;;;;5069751;28;20169;-65
2020/12/03 02:43:21;;;;;;;16.10;14.03;;;4.40;99.90;;;;;;5083191;28;20428;-65
2020/12/03 02:45:46;;;;;;;16.57;14.87;;;4.40;99.90;;;;;;5082766;28;20411;-65
2020/12/03 02:48:12;;;;;;;15.70;14.10;;;4.40;99.90;;;;;;5069267;28;20253;-65
2020/12/03 02:50:37;;;;;;;18.70;16.07;;;4.40;99.90;;;;;;5069160;28;20157;-65
2020/12/03 02:53:03;;;;;;;15.70;14.03;;;4.40;99.90;;;;;;5069024;28;20169;-65
2020/12/03 02:55:28;;;;;;;17.33;14.90;;;4.50;99.90;;;;;;5069256;28;20557;-65
2020/12/03 02:57:54;;;;;;;18.27;16.23;;;4.50;99.90;;;;;;5068935;28;20536;-65
2020/12/03 03:00:19;;;;;;;17.40;15.60;;;4.50;99.90;;;;;;5068885;28;20206;-65
2020/12/03 03:02:45;;;;;;;16.70;15.00;;;4.50;99.90;;;;;;5069500;28;20519;-65
2020/12/03 03:05:10;;;;;;;18.40;14.73;;;4.60;99.90;;;;;;5068988;28;20556;-65
2020/12/03 03:07:36;;;;;;;15.23;13.63;;;4.60;99.90;;;;;;5068825;28;20161;-65
2020/12/03 03:10:02;;;;;;;18.50;14.90;;;4.60;99.90;;;;;;5058764;28;20162;-66
2020/12/03 03:12:28;;;;;;;16.43;14.73;;;4.60;99.90;;;;;;5061173;28;20180;-65
2020/12/03 03:14:53;;;;;;;17.10;15.30;;;4.60;99.90;;;;;;5075588;28;20476;-65
2020/12/03 03:17:20;;;;;;;15.70;13.63;;;4.60;99.90;;;;;;5075303;28;20714;-65
2020/12/03 03:19:46;;;;;;;15.77;14.17;;;4.50;99.90;;;;;;5067443;28;20699;-65
2020/12/03 03:22:11;;;;;;;15.33;13.63;;;4.50;99.90;;;;;;5055491;28;20396;-65
2020/12/03 03:24:37;;;;;;;15.23;13.63;;;4.50;99.90;;;;;;5055601;28;20166;-65
2020/12/03 03:27:02;;;;;;;15.97;14.37;;;4.60;99.90;;;;;;5055372;28;20201;-65
2020/12/03 03:29:28;;;;;;;21.33;14.20;;;4.60;99.90;;;;;;5055230;28;20218;-65
2020/12/03 03:31:53;;;;;;;15.40;13.77;;;4.60;99.90;;;;;;5055228;28;20164;-65
2020/12/03 03:34:19;;;;;;;15.63;13.80;;;4.60;99.90;;;;;;5055219;28;20286;-65
2020/12/03 03:36:44;;;;;;;16.50;14.80;;;4.60;99.90;;;;;;5055633;28;20187;-65
2020/12/03 03:39:18;;;;;;;15.67;14.07;;;4.50;99.90;;;;;;5055342;28;20162;-65
2020/12/03 03:41:43;;;;;;;15.90;14.20;;;4.50;99.90;;;;;;5057250;28;20174;-65
2020/12/03 03:44:09;;;;;;;14.97;13.47;;;4.50;99.90;;;;;;5075163;28;20407;-65
2020/12/03 03:46:35;;;;;;;16.20;14.50;;;4.40;99.90;;;;;;5075333;28;20244;-65
2020/12/03 03:49:00;;;;;;;16.90;15.20;;;4.50;99.90;;;;;;5075368;28;20475;-65
2020/12/03 03:51:26;;;;;;;18.03;16.13;;;4.50;99.90;;;;;;5074886;28;20167;-65
2020/12/03 03:53:51;;;;;;;18.53;14.43;;;4.50;99.90;;;;;;5067552;28;20511;-65
2020/12/03 03:56:17;;;;;;;16.60;14.63;;;4.50;99.90;;;;;;5054809;28;20530;-65
2020/12/03 03:58:42;;;;;;;17.30;14.17;;;4.50;99.90;;;;;;5054395;28;20216;-65
2020/12/03 04:01:08;;;;;;;16.27;14.37;;;4.50;99.90;;;;;;5054609;28;20205;-65
2020/12/03 04:03:33;;;;;;;20.33;14.13;;;4.40;99.90;;;;;;5054639;28;20155;-65
2020/12/03 04:05:59;;;;;;;18.60;15.70;;;4.40;99.90;;;;;;5054527;28;20242;-66
2020/12/03 04:08:26;;;;;;;16.30;14.20;;;4.40;99.90;;;;;;5054632;28;20228;-65
2020/12/03 04:10:52;;;;;;;16.77;14.00;;;4.40;99.90;;;;;;5055051;28;20287;-65
2020/12/03 04:13:20;;;;;;;15.37;13.80;;;4.40;99.90;;;;;;5068141;28;20549;-65
2020/12/03 04:15:45;;;;;;;16.67;14.70;;;4.40;99.90;;;;;;5074437;28;20528;-65
2020/12/03 04:18:11;;;;;;;15.63;14.07;;;4.40;99.90;;;;;;5074234;28;20541;-65
2020/12/03 04:20:36;;;;;;;15.53;13.77;;;4.40;99.90;;;;;;5066937;28;20198;-66
2020/12/03 04:23:03;;;;;;;14.67;11.73;;;4.40;99.90;;;;;;5054438;28;20568;-65
2020/12/03 04:25:28;;;;;;;15.20;13.27;;;4.40;99.90;;;;;;5053089;28;20611;-65
2020/12/03 04:27:54;;;;;;;13.63;11.10;;;4.50;99.90;;;;;;5061909;28;20418;-65
2020/12/03 04:30:19;;;;;;;13.10;11.80;;;4.50;99.90;;;;;;5074103;28;20226;-66
2020/12/03 04:32:45;;;;;;;13.70;11.77;;;4.50;99.90;;;;;;5074082;28;20619;-66
2020/12/03 04:35:11;;;;;;;14.70;12.37;;;4.50;99.90;;;;;;5074074;28;20170;-65
2020/12/03 04:37:38;;;;;;;13.97;12.30;;;4.50;99.90;;;;;;5072715;28;20200;-65
2020/12/03 04:40:06;;;;;;;13.07;11.40;;;4.50;99.90;;;;;;5072752;28;20680;-66
2020/12/03 04:42:35;;;;;;;12.60;11.30;;;4.50;99.90;;;;;;5063535;28;20942;-66
2020/12/03 04:53:41;;;;;;;14.33;12.20;;;4.50;99.90;;;;;;5058917;27;20532;-66
2020/12/03 04:56:13;;;;;;;12.87;11.57;;;4.50;99.90;;;;;;5039075;28;20429;-65
2020/12/03 04:59:05;;;;;;;14.50;12.17;;;4.50;99.90;;;;;;5042131;28;20748;-65
2020/12/03 05:02:01;;;;;;;12.97;11.10;;;4.40;99.90;;;;;;5002923;28;20998;-65
2020/12/03 05:04:36;;;;;;;13.00;11.70;;;4.40;99.90;;;;;;5012452;28;20418;-65
2020/12/03 05:07:07;;;;;;;14.77;12.40;;;4.40;99.90;;;;;;5016427;28;20471;-65
2020/12/03 05:09:50;;;;;;;14.73;13.17;;;4.40;99.90;;;;;;5018320;28;20411;-66
2020/12/03 05:12:22;;;;;;;13.00;11.80;;;4.50;99.90;;;;;;5014876;28;20485;-65
2020/12/03 05:14:54;;;;;;;15.07;12.90;;;4.50;99.90;;;;;;5021757;28;20405;-66
2020/12/03 05:20:37;;;;;;;15.40;13.70;;;4.50;99.90;;;;;;5091716;27;20519;-65
2020/12/03 05:23:10;;;;;;;14.87;13.37;;;4.50;99.90;;;;;;5078319;28;20492;-65
2020/12/03 05:25:36;;;;;;;16.07;12.80;;;4.50;99.90;;;;;;5070216;28;20955;-65
2020/12/03 05:31:09;;;;;;;14.83;12.10;;;4.50;99.90;;;;;;5131339;27;20515;-67
2020/12/03 05:33:35;;;;;;;14.13;12.63;;;4.50;99.90;;;;;;5131787;27;20384;-64
2020/12/03 05:36:00;;;;;;;16.53;13.50;;;4.50;99.90;;;;;;5122340;27;20980;-64
2020/12/03 05:38:27;;;;;;;14.83;13.23;;;4.50;99.90;;;;;;5110704;28;20516;-65
2020/12/03 05:41:02;;;;;;;15.53;12.50;;;4.50;99.90;;;;;;5110715;28;20151;-67
2020/12/03 05:43:29;;;;;;;16.33;13.20;;;4.50;99.90;;;;;;5129400;28;20410;-67
2020/12/03 05:45:56;;;;;;;16.50;13.70;;;4.50;99.90;;;;;;5131207;27;20421;-67
2020/12/03 05:48:22;;;;;;;16.07;13.60;;;4.40;99.90;;;;;;5131195;27;20450;-67
2020/12/03 05:50:48;;;;;;;15.97;14.20;;;4.40;99.90;;;;;;5121745;28;20536;-66
2020/12/03 05:53:18;;;;;;;15.70;13.30;;;4.40;99.90;;;;;;5121427;27;20176;-66
2020/12/03 05:55:45;;;;;;;16.43;14.33;;;4.40;99.90;;;;;;5129843;28;20403;-66
2020/12/03 05:58:21;;;;;;;17.73;13.37;;;4.50;99.90;;;;;;5129728;28;20400;-67
2020/12/03 06:00:48;;;;;;;15.67;13.03;;;4.40;99.90;;;;;;5130859;27;20474;-66
2020/12/03 06:03:30;;;;;;;15.13;13.43;;;4.50;99.90;;;;;;5131121;27;20400;-66
2020/12/03 06:11:58;;;;;;;14.20;12.33;;;4.40;99.90;;;;;;5130777;27;20915;-66
2020/12/03 06:14:51;;;;;;;14.53;12.03;;;4.40;99.90;;;;;;5130448;28;20395;-66
2020/12/03 06:20:40;;;;;;;17.43;12.80;;;4.30;99.90;;;;;;5131412;27;20513;-67
2020/12/03 06:32:10;;;;;;;15.77;13.40;;;4.40;99.90;;;;;;5109419;27;20513;-66
2020/12/03 06:34:43;;;;;;;17.67;14.53;;;4.40;99.90;;;;;;5084172;28;20419;-66
2020/12/03 06:37:24;;;;;;;15.30;13.37;;;4.40;99.90;;;;;;5087373;28;20420;-66
2020/12/03 06:39:57;;;;;;;16.87;14.13;;;4.40;99.90;;;;;;5090310;28;20421;-66
2020/12/03 06:56:37;;;;;;;19.13;12.90;;;4.40;99.90;;;;;;5130952;27;20565;-65
2020/12/03 06:59:34;;;;;;;18.17;14.17;;;4.40;99.90;;;;;;5129136;28;20881;-66
2020/12/03 07:05:30;;;;;;;18.50;15.07;;;4.40;99.90;;;;;;5090411;28;20563;-66
2020/12/03 07:11:19;;;;;;;14.20;11.93;;;4.40;99.90;;;;;;5110191;27;20522;-66
2020/12/03 07:19:37;;;;;;;15.30;13.43;;;4.30;99.90;;;;;;5101952;27;20523;-67
2020/12/03 07:22:22;;;;;;;17.20;14.43;;;4.40;99.90;;;;;;5065368;28;20409;-67
2020/12/03 07:24:50;;;;;;;17.90;14.57;;;4.50;99.90;;;;;;5069866;28;20398;-67
2020/12/03 07:30:05;;;;;;;20.20;14.40;;;4.50;99.90;;;;;;5131920;27;20497;-65
2020/12/03 07:35:46;;;;;;;17.23;14.33;;;4.50;99.90;;;;;;5119258;27;20586;-66
2020/12/03 07:38:22;;;;;;;17.03;14.13;;;4.50;99.90;;;;;;5118710;28;20811;-66
2020/12/03 07:40:53;;;;;;;16.40;12.97;;;4.50;99.90;;;;;;5109059;28;20982;-66
2020/12/03 07:43:28;;;;;;;15.10;13.07;;;4.50;99.90;;;;;;5100041;28;20424;-66
2020/12/03 07:45:54;;;;;;;15.57;13.90;;;4.50;99.90;;;;;;5095801;28;20453;-65
2020/12/03 07:48:41;;;;;;;15.43;12.43;;;4.50;99.90;;;;;;5098082;28;20432;-65
2020/12/03 07:51:10;;;;;;;14.10;12.60;;;4.50;99.90;;;;;;5096389;28;20530;-66
2020/12/03 07:53:36;;;;;;;14.57;13.03;;;4.50;99.90;;;;;;5102372;28;20505;-66
2020/12/03 07:56:32;;;;;;;15.67;13.03;;;4.50;99.90;;;;;;5094673;28;20409;-65
2020/12/03 08:02:02;;;;;;;14.63;13.10;;;4.60;99.90;;;;;;5104203;27;20526;-67
2020/12/03 08:04:32;;;;;;;16.47;13.33;;;4.50;99.90;;;;;;5092075;28;20434;-65
2020/12/03 08:12:18;;;;;;;15.50;12.93;;;4.70;99.90;;;;;;5100262;27;20592;-66
2020/12/03 08:15:01;;;;;;;15.30;13.70;;;4.70;99.90;;;;;;5104509;28;20506;-66
2020/12/03 08:22:43;;;;;;;13.53;12.10;;;4.70;99.90;;;;;;5129115;27;20520;-66
2020/12/03 08:28:00;;;;;;;16.37;13.60;;;4.60;99.90;;;;;;5068761;28;20575;-66
2020/12/03 08:35:52;;;;;;;14.00;12.50;;;4.60;99.90;;;;;;5131202;27;20512;-66
2020/12/03 08:38:20;;;;;;;13.50;12.10;;;4.60;99.90;;;;;;5113437;27;20491;-66
2020/12/03 08:40:47;;;;;;;14.80;12.50;;;4.60;99.90;;;;;;5112471;27;20782;-66
2020/12/03 08:43:16;;;;;;;14.03;11.73;;;4.60;99.90;;;;;;5115089;28;20477;-66
2020/12/03 08:45:51;;;;;;;13.50;11.70;;;4.60;99.90;;;;;;5110049;28;20523;-66
2020/12/03 08:48:23;;;;;;;14.43;11.77;;;4.60;99.90;;;;;;5109093;28;20475;-66
2020/12/03 08:51:06;;;;;;;16.43;12.80;;;4.50;99.90;;;;;;5109224;28;20399;-66
2020/12/03 08:53:32;;;;;;;13.40;12.00;;;4.60;99.90;;;;;;5109216;28;20395;-66
2020/12/03 08:59:04;;;;;;;13.63;11.50;;;4.60;99.90;;;;;;5119206;27;20925;-66
2020/12/03 09:01:34;;;;;;;14.10;12.60;;;4.60;99.90;;;;;;5122544;28;20498;-66
2020/12/03 09:04:03;;;;;;;14.07;11.70;;;4.60;99.90;;;;;;5116600;27;20414;-66
2020/12/03 09:06:30;;;;;;;13.13;11.67;;;4.60;99.90;;;;;;5109806;28;20806;-65
2020/12/03 09:08:56;;;;;;;17.23;14.30;;;4.60;99.90;;;;;;5110169;28;20887;-65
2020/12/03 09:11:24;;;;;;;13.33;11.93;;;4.70;99.90;;;;;;5114349;28;20419;-66
2020/12/03 09:13:56;;;;;;;13.37;11.97;;;4.60;99.90;;;;;;5118032;27;20540;-66
2020/12/03 09:16:25;;;;;;;12.57;11.37;;;4.60;99.90;;;;;;5125267;27;20498;-66
2020/12/03 09:18:50;;;;;;;12.10;10.83;;;4.60;99.90;;;;;;5113374;28;20426;-65
2020/12/03 09:21:25;;;;;;;13.50;12.17;;;4.60;99.90;;;;;;5124031;28;20433;-65
2020/12/03 09:23:53;;;;;;;12.80;11.50;;;4.60;99.90;;;;;;5109943;28;20172;-66
2020/12/03 09:26:26;;;;;;;13.40;12.10;;;4.60;99.90;;;;;;5120397;28;20412;-66
2020/12/03 09:28:51;;;;;;;15.07;11.13;;;4.60;99.90;;;;;;5120977;27;20458;-66
2020/12/03 09:31:18;;;;;;;13.90;11.40;;;4.60;99.90;;;;;;5112879;28;20490;-65
2020/12/03 09:33:44;;;;;;;13.53;11.40;;;4.60;99.90;;;;;;5112023;27;20169;-65
2020/12/03 09:36:11;;;;;;;14.30;12.67;;;4.60;99.90;;;;;;5109262;27;20416;-65
2020/12/03 09:38:40;;;;;;;14.47;12.27;;;4.60;99.90;;;;;;5109682;28;20450;-66
2020/12/03 09:41:07;;;;;;;13.23;11.73;;;4.60;99.90;;;;;;5109172;27;20991;-65
2020/12/03 09:43:34;;;;;;;16.67;11.63;;;4.60;99.90;;;;;;5120496;28;20422;-66
2020/12/03 09:46:06;;;;;;;14.90;12.10;;;4.70;99.90;;;;;;5109597;28;20500;-66
2020/12/03 09:48:32;;;;;;;15.40;13.70;;;4.70;99.90;;;;;;5108248;28;20490;-65
2020/12/03 09:51:03;;;;;;;13.63;12.20;;;4.80;99.90;;;;;;5108697;28;20477;-66
2020/12/03 09:53:31;;;;;;;13.90;11.90;;;4.80;99.90;;;;;;5103485;28;20417;-66
2020/12/03 09:56:01;;;;;;;14.77;12.53;;;4.80;99.90;;;;;;5105078;28;20419;-66
2020/12/03 09:58:26;;;;;;;14.83;13.03;;;4.80;99.90;;;;;;5115443;28;20456;-65
2020/12/03 10:00:54;;;;;;;15.37;13.77;;;4.90;99.90;;;;;;5108608;28;20405;-66
2020/12/03 10:06:35;;;;;;;13.67;12.37;;;4.90;99.90;;;;;;5139616;27;20516;-66
2020/12/03 10:09:27;;;;;;;15.23;13.63;;;4.90;99.90;;;;;;5127032;28;20492;-66
2020/12/03 10:12:25;;;;;;;13.80;11.80;;;4.90;99.90;;;;;;5115830;27;20438;-66
2020/12/03 10:15:00;;;;;;;13.30;11.90;;;5.00;99.90;;;;;;5109737;28;20432;-66
2020/12/03 10:17:32;;;;;;;13.67;12.27;;;5.00;99.90;;;;;;5111781;28;20406;-66
2020/12/03 10:20:01;;;;;;;15.10;13.20;;;5.00;99.90;;;;;;5120232;27;20444;-66
2020/12/03 10:22:44;;;;;;;12.63;11.20;;;5.10;99.90;;;;;;5111932;28;20389;-66
2020/12/03 10:28:10;;;;;;;14.27;12.73;;;5.10;99.90;;;;;;5120235;27;21043;-67
2020/12/03 10:30:37;;;;;;;15.43;12.50;;;5.20;99.90;;;;;;5109726;28;20427;-67
2020/12/03 10:33:08;;;;;;;13.37;11.93;;;5.30;99.90;;;;;;5106183;28;20421;-67
2020/12/03 10:35:39;;;;;;;14.63;13.13;;;5.30;99.90;;;;;;5107445;28;20427;-67
2020/12/03 10:38:14;;;;;;;13.47;12.07;;;5.30;99.90;;;;;;5108483;28;20930;-67
2020/12/03 10:40:41;;;;;;;15.23;12.07;;;5.40;99.90;;;;;;5109745;28;20415;-67
2020/12/03 10:43:10;;;;;;;12.97;11.57;;;5.50;99.90;;;;;;5103254;28;20441;-67
2020/12/03 10:45:41;;;;;;;14.63;12.50;;;5.60;99.90;;;;;;5102801;28;20490;-67
2020/12/03 10:48:21;;;;;;;17.90;13.13;;;5.60;99.90;;;;;;5105419;28;20441;-67
2020/12/03 10:53:25;;;;;;;12.90;11.63;;;5.70;99.90;;;;;;5110469;27;20517;-66
2020/12/03 10:56:11;;;;;;;12.83;11.33;;;5.80;99.90;;;;;;5109712;28;20415;-66
2020/12/03 10:58:51;;;;;;;13.87;12.40;;;5.80;99.90;;;;;;5097270;28;20440;-66
2020/12/03 11:01:24;;;;;;;13.50;11.17;;;5.80;99.90;;;;;;5093704;28;20422;-66
2020/12/03 11:03:52;;;;;;;14.00;11.90;;;5.70;99.90;;;;;;5095471;28;20988;-66
2020/12/03 11:06:23;;;;;;;13.50;11.40;;;5.70;99.90;;;;;;5102528;28;20424;-66
2020/12/03 11:08:51;;;;;;;12.17;9.93;;;5.70;99.90;;;;;;5095516;28;20515;-66
2020/12/03 11:11:17;;;;;;;12.77;11.33;;;5.60;99.90;;;;;;5095698;28;21020;-66
2020/12/03 11:13:43;;;;;;;12.73;11.30;;;5.60;99.90;;;;;;5098958;28;20412;-66
2020/12/03 11:16:11;;;;;;;13.73;11.87;;;5.60;99.90;;;;;;5108094;28;20412;-66
2020/12/03 11:18:44;;;;;;;11.73;10.53;;;5.60;99.90;;;;;;5103812;28;20909;-66
2020/12/03 11:21:23;;;;;;;12.13;10.90;;;5.60;99.90;;;;;;5093839;28;20449;-66
2020/12/03 11:26:41;;;;;;;14.00;11.13;;;5.60;99.90;;;;;;5072065;27;20514;-67
2020/12/03 11:29:11;;;;;;;13.47;11.73;;;5.70;99.90;;;;;;5087186;28;20927;-67
2020/12/03 11:31:37;;;;;;;13.07;11.20;;;5.80;99.90;;;;;;5077043;28;20968;-67
2020/12/03 11:34:04;;;;;;;11.20;10.10;;;5.80;99.90;;;;;;5078115;28;20425;-67
2020/12/03 11:36:37;;;;;;;12.77;10.97;;;5.90;99.90;;;;;;5077148;28;20521;-67
2020/12/03 11:39:04;;;;;;;12.70;11.33;;;5.90;99.90;;;;;;5076305;28;20517;-67
2020/12/03 11:41:40;;;;;;;12.10;10.07;;;6.00;99.90;;;;;;5086305;28;20431;-67
2020/12/03 11:44:27;;;;;;;13.40;10.97;;;5.90;99.90;;;;;;5088650;28;20405;-67
2020/12/03 11:49:30;;;;;;;11.50;10.30;;;5.90;99.90;;;;;;5089426;28;20515;-67
2020/12/03 11:52:08;;;;;;;11.60;9.53;;;5.90;99.90;;;;;;5089921;28;20593;-67
2020/12/03 11:54:33;;;;;;;12.50;10.40;;;5.90;99.90;;;;;;5080362;28;20446;-67
2020/12/03 11:57:00;;;;;;;11.63;10.50;;;6.00;99.90;;;;;;5077870;28;20407;-67
2020/12/03 11:59:32;;;;;;;11.50;9.97;;;6.00;99.90;;;;;;5079191;28;20522;-66
2020/12/03 12:02:02;;;;;;;10.40;9.40;;;6.00;99.90;;;;;;5089805;28;20406;-67
2020/12/03 12:07:15;;;;;;;11.77;10.50;;;6.00;99.90;;;;;;5115187;27;20572;-66
2020/12/03 12:12:19;;;;;;;11.60;10.40;;;5.80;99.90;;;;;;5050303;28;20528;-66
2020/12/03 12:14:44;;;;;;;12.23;10.93;;;5.90;99.90;;;;;;5045774;28;20413;-66
2020/12/03 12:17:10;;;;;;;11.20;9.60;;;5.80;99.90;;;;;;5048256;28;20462;-66
2020/12/03 12:19:37;;;;;;;11.83;9.60;;;5.80;99.90;;;;;;5048982;28;20531;-66
2020/12/03 12:22:04;;;;;;;10.83;9.27;;;5.80;99.90;;;;;;5049952;28;20164;-66
2020/12/03 12:24:30;;;;;;;10.90;9.50;;;5.70;99.90;;;;;;5049357;28;20402;-66
2020/12/03 12:26:55;;;;;;;13.47;10.40;;;5.70;99.90;;;;;;5049483;28;20946;-66
2020/12/03 12:29:21;;;;;;;10.70;9.63;;;5.70;99.90;;;;;;5048358;28;20877;-66
2020/12/03 12:31:47;;;;;;;11.43;9.60;;;5.70;99.90;;;;;;5048523;28;20549;-66
2020/12/03 12:34:12;;;;;;;11.70;10.50;;;5.70;99.90;;;;;;5049110;28;20179;-66
2020/12/03 12:36:38;;;;;;;13.73;10.87;;;5.70;99.90;;;;;;5049213;28;20184;-66
2020/12/03 12:39:04;;;;;;;11.27;9.70;;;5.80;99.90;;;;;;5049489;28;20175;-66
2020/12/03 12:41:30;;;;;;;11.90;9.47;;;5.90;99.90;;;;;;5036915;28;20229;-65
2020/12/03 12:43:55;;;;;;;12.07;9.97;;;5.90;99.90;;;;;;5043367;28;20938;-66
2020/12/03 12:46:23;;;;;;;11.90;9.60;;;5.90;99.90;;;;;;5049038;28;20161;-66
2020/12/03 12:48:49;;;;;;;9.30;8.40;;;5.90;99.90;;;;;;5048665;28;20568;-65
2020/12/03 12:51:15;;;;;;;10.93;9.83;;;5.90;99.90;;;;;;5048234;28;20599;-67
2020/12/03 12:53:42;;;;;;;12.60;10.50;;;5.90;99.90;;;;;;5049879;28;20499;-65
2020/12/03 12:56:09;;;;;;;12.40;10.97;;;5.90;99.90;;;;;;5049301;28;20167;-66
2020/12/03 12:58:35;;;;;;;10.43;9.43;;;5.90;99.90;;;;;;5048262;28;20411;-66
2020/12/03 13:01:00;;;;;;;13.97;10.50;;;5.90;99.90;;;;;;5048119;28;20471;-66
2020/12/03 13:03:26;;;;;;;11.77;8.97;;;6.00;99.90;;;;;;5048926;28;20166;-66
2020/12/03 13:05:53;;;;;;;11.00;9.90;;;6.00;99.90;;;;;;5048540;28;20170;-65
2020/12/03 13:08:19;;;;;;;10.70;9.47;;;6.00;99.90;;;;;;5048309;28;20192;-65
2020/12/03 13:10:44;;;;;;;11.33;10.13;;;5.90;99.90;;;;;;5047736;28;20460;-65
2020/12/03 13:13:10;;;;;;;11.67;9.67;;;5.90;99.90;;;;;;5047758;28;20227;-65
2020/12/03 13:15:35;;;;;;;12.67;9.70;;;6.00;99.90;;;;;;5047911;28;20174;-65
2020/12/03 13:18:01;;;;;;;10.37;9.27;;;5.90;99.90;;;;;;5047349;28;20641;-66
2020/12/03 13:20:26;;;;;;;9.90;8.90;;;5.80;99.90;;;;;;5048593;28;20198;-66
2020/12/03 13:22:52;;;;;;;9.63;8.63;;;5.80;99.90;;;;;;5039450;28;20254;-66
2020/12/03 13:25:18;;;;;;;9.03;8.13;;;5.80;99.90;;;;;;5034970;28;20173;-65
2020/12/03 13:27:43;;;;;;;10.10;9.10;;;5.70;99.90;;;;;;5034625;28;20171;-66
2020/12/03 13:30:09;;;;;;;11.13;8.70;;;5.70;99.90;;;;;;5034327;28;20182;-67
2020/12/03 13:32:34;;;;;;;10.93;9.37;;;5.70;99.90;;;;;;5029666;28;20166;-67
2020/12/03 13:35:00;;;;;;;10.90;9.87;;;5.70;99.90;;;;;;5034837;28;20161;-65
2020/12/03 13:37:25;;;;;;;11.90;9.60;;;5.60;99.90;;;;;;5034850;28;20172;-65
2020/12/03 13:39:51;;;;;;;10.73;9.20;;;5.60;99.90;;;;;;5034020;28;20527;-65
2020/12/03 13:42:16;;;;;;;10.70;9.40;;;5.60;99.90;;;;;;5034864;28;20250;-65
2020/12/03 13:44:42;;;;;;;11.50;9.73;;;5.50;99.90;;;;;;5034703;28;20245;-65
2020/12/03 13:47:07;;;;;;;11.37;10.17;;;5.50;99.90;;;;;;5034310;28;20173;-65
2020/12/03 13:49:33;;;;;;;11.13;9.57;;;5.60;99.90;;;;;;5025329;28;20259;-65
2020/12/03 13:51:58;;;;;;;11.60;10.40;;;5.60;99.90;;;;;;5034500;28;20214;-65
2020/12/03 13:54:24;;;;;;;11.50;9.40;;;5.60;99.90;;;;;;5033338;28;20170;-65
2020/12/03 13:56:49;;;;;;;11.67;10.57;;;5.60;99.90;;;;;;5034419;28;20181;-65
2020/12/03 13:59:15;;;;;;;11.00;9.90;;;5.60;99.90;;;;;;5032661;28;20173;-65
2020/12/03 14:01:41;;;;;;;11.30;10.10;;;5.50;99.90;;;;;;5031518;28;20201;-65
2020/12/03 14:04:06;;;;;;;11.43;10.13;;;5.50;99.90;;;;;;5032787;28;20182;-65
2020/12/03 14:06:32;;;;;;;11.10;9.50;;;5.50;99.90;;;;;;5033681;28;20189;-65
2020/12/03 14:08:57;;;;;;;11.63;10.53;;;5.50;99.90;;;;;;5032535;28;20235;-65
2020/12/03 14:11:23;;;;;;;11.97;10.33;;;5.50;99.90;;;;;;5033591;28;20212;-65
2020/12/03 14:13:48;;;;;;;11.70;10.50;;;5.50;99.90;;;;;;5032456;28;20665;-65
2020/12/03 14:16:14;;;;;;;11.83;10.57;;;5.50;99.90;;;;;;5034337;28;20173;-65
2020/12/03 14:18:40;;;;;;;12.70;11.30;;;5.50;99.90;;;;;;5034111;28;20415;-65
2020/12/03 14:21:06;;;;;;;12.90;11.60;;;5.50;99.90;;;;;;5033845;28;20292;-65
2020/12/03 14:23:35;;;;;;;11.57;10.37;;;5.50;99.90;;;;;;5033880;28;20537;-65
2020/12/03 14:26:02;;;;;;;13.43;12.03;;;5.50;99.90;;;;;;5032440;28;20425;-65
2020/12/03 14:28:27;;;;;;;13.57;12.20;;;5.50;99.90;;;;;;5033402;28;20429;-65
2020/12/03 14:30:54;;;;;;;13.10;11.43;;;5.50;99.90;;;;;;5028547;28;21755;-65
2020/12/03 14:33:19;;;;;;;12.50;11.13;;;5.50;99.90;;;;;;5031211;28;20176;-65
2020/12/03 14:35:45;;;;;;;12.40;11.13;;;5.50;99.90;;;;;;5031487;28;20414;-65
2020/12/03 14:38:11;;;;;;;11.63;10.37;;;5.50;99.90;;;;;;5031598;28;20518;-65
2020/12/03 14:40:36;;;;;;;11.63;10.40;;;5.50;99.90;;;;;;5031109;28;20178;-65